Archival Weather

Granbury Rgnl

Granbury, Texas (KGDJ)

Report from: Monday, January 29, 2024 10:15 PM UTC
Current time: Tuesday, June 18, 2024 12:37 PM UTC

Current weather – Weather history – Daily summaries
Weather forecast

Temperature22.1°C (71.8°F)
Dew point2.9°C (37.2°F)
Winds 4 kts (2.1 m/s, 4.6 mph) North-Northwest (330°)
Visibility10 mi. (16.1 km)
Clouds Sky clear
Altimeter30.21 in.Hg (1023 mB)
Relative humidity28 %
Density altitude615 ft. (187 m)
Remarks Fully automated report
Automated weather observing station with precipitation discriminator
Flight conditions Visual Meteorological Conditions
Raw dataKGDJ 292215Z AUTO 33004KT 10SM CLR 22/03 A3021 RMK AO2 T02210029
An error has occurred. This application may no longer respond until reloaded. Reload 🗙